sensor_id;sensor_type;location;lat;lon;timestamp;temperature;humidity
48768;DHT22;34933;40.968;14.538;2023-07-09T00:01:45;25.90;99.90
48768;DHT22;34933;40.968;14.538;2023-07-09T00:04:30;25.90;99.90
48768;DHT22;34933;40.968;14.538;2023-07-09T00:07:30;26.00;99.90
48768;DHT22;34933;40.968;14.538;2023-07-09T00:10:20;26.00;99.90
48768;DHT22;34933;40.968;14.538;2023-07-09T00:13:04;25.90;99.90
48768;DHT22;34933;40.968;14.538;2023-07-09T00:15:50;25.90;99.90
48768;DHT22;34933;40.968;14.538;2023-07-09T00:18:34;25.80;99.90
48768;DHT22;34933;40.968;14.538;2023-07-09T00:21:21;25.70;99.90
48768;DHT22;34933;40.968;14.538;2023-07-09T00:24:06;25.70;99.90
48768;DHT22;34933;40.968;14.538;2023-07-09T00:26:54;25.60;99.90
48768;DHT22;34933;40.968;14.538;2023-07-09T00:29:39;25.60;99.90
48768;DHT22;34933;40.968;14.538;2023-07-09T00:32:23;25.60;99.90
48768;DHT22;34933;40.968;14.538;2023-07-09T00:35:10;25.50;99.90
48768;DHT22;34933;40.968;14.538;2023-07-09T00:37:59;25.50;99.90
48768;DHT22;34933;40.968;14.538;2023-07-09T00:41:03;25.40;99.90
48768;DHT22;34933;40.968;14.538;2023-07-09T00:43:50;25.30;99.90
48768;DHT22;34933;40.968;14.538;2023-07-09T00:49:38;25.40;99.90
48768;DHT22;34933;40.968;14.538;2023-07-09T00:52:39;25.30;99.90
48768;DHT22;34933;40.968;14.538;2023-07-09T00:55:30;25.30;99.90
48768;DHT22;34933;40.968;14.538;2023-07-09T00:58:17;25.30;99.90
48768;DHT22;34933;40.968;14.538;2023-07-09T01:01:08;25.20;99.90
48768;DHT22;34933;40.968;14.538;2023-07-09T01:03:57;25.10;99.90
48768;DHT22;34933;40.968;14.538;2023-07-09T01:06:47;25.10;99.90
48768;DHT22;34933;40.968;14.538;2023-07-09T01:09:33;25.00;99.90
48768;DHT22;34933;40.968;14.538;2023-07-09T01:12:20;24.90;99.90
48768;DHT22;34933;40.968;14.538;2023-07-09T01:15:07;24.90;99.90
48768;DHT22;34933;40.968;14.538;2023-07-09T01:17:51;24.90;99.90
48768;DHT22;34933;40.968;14.538;2023-07-09T01:20:38;24.90;99.90
48768;DHT22;34933;40.968;14.538;2023-07-09T01:23:23;24.90;99.90
48768;DHT22;34933;40.968;14.538;2023-07-09T01:26:08;24.90;99.90
48768;DHT22;34933;40.968;14.538;2023-07-09T01:28:53;24.90;99.90
48768;DHT22;34933;40.968;14.538;2023-07-09T01:31:38;24.90;99.90
48768;DHT22;34933;40.968;14.538;2023-07-09T01:34:23;24.80;99.90
48768;DHT22;34933;40.968;14.538;2023-07-09T01:37:09;24.70;99.90
48768;DHT22;34933;40.968;14.538;2023-07-09T01:39:54;24.70;99.90
48768;DHT22;34933;40.968;14.538;2023-07-09T01:42:39;24.70;99.90
48768;DHT22;34933;40.968;14.538;2023-07-09T01:45:23;24.60;99.90
48768;DHT22;34933;40.968;14.538;2023-07-09T01:48:08;24.60;99.90
48768;DHT22;34933;40.968;14.538;2023-07-09T01:51:00;24.60;99.90
48768;DHT22;34933;40.968;14.538;2023-07-09T01:53:46;24.60;99.90
48768;DHT22;34933;40.968;14.538;2023-07-09T01:56:31;24.60;99.90
48768;DHT22;34933;40.968;14.538;2023-07-09T01:59:15;24.60;99.90
48768;DHT22;34933;40.968;14.538;2023-07-09T02:02:00;24.60;99.90
48768;DHT22;34933;40.968;14.538;2023-07-09T02:04:48;24.50;99.90
48768;DHT22;34933;40.968;14.538;2023-07-09T02:07:33;24.50;99.90
48768;DHT22;34933;40.968;14.538;2023-07-09T02:10:18;24.50;99.90
48768;DHT22;34933;40.968;14.538;2023-07-09T02:13:02;24.50;99.90
48768;DHT22;34933;40.968;14.538;2023-07-09T02:15:47;24.50;99.90
48768;DHT22;34933;40.968;14.538;2023-07-09T02:18:31;24.50;99.90
48768;DHT22;34933;40.968;14.538;2023-07-09T02:21:18;24.40;99.90
48768;DHT22;34933;40.968;14.538;2023-07-09T02:24:03;24.40;99.90
48768;DHT22;34933;40.968;14.538;2023-07-09T02:26:48;24.40;99.90
48768;DHT22;34933;40.968;14.538;2023-07-09T02:29:34;24.30;99.90
48768;DHT22;34933;40.968;14.538;2023-07-09T02:32:21;24.20;99.90
48768;DHT22;34933;40.968;14.538;2023-07-09T02:35:06;24.20;99.90
48768;DHT22;34933;40.968;14.538;2023-07-09T02:37:50;24.20;99.90
48768;DHT22;34933;40.968;14.538;2023-07-09T02:40:35;24.20;99.90
48768;DHT22;34933;40.968;14.538;2023-07-09T02:43:20;24.10;99.90
48768;DHT22;34933;40.968;14.538;2023-07-09T02:46:04;24.10;99.90
48768;DHT22;34933;40.968;14.538;2023-07-09T02:48:49;24.10;99.90
48768;DHT22;34933;40.968;14.538;2023-07-09T02:51:34;24.00;99.90
48768;DHT22;34933;40.968;14.538;2023-07-09T02:54:18;24.00;99.90
48768;DHT22;34933;40.968;14.538;2023-07-09T02:57:03;24.00;99.90
48768;DHT22;34933;40.968;14.538;2023-07-09T02:59:48;24.00;99.90
48768;DHT22;34933;40.968;14.538;2023-07-09T03:02:33;24.00;99.90
48768;DHT22;34933;40.968;14.538;2023-07-09T03:05:19;23.90;99.90
48768;DHT22;34933;40.968;14.538;2023-07-09T03:08:03;23.90;99.90
48768;DHT22;34933;40.968;14.538;2023-07-09T03:10:48;23.90;99.90
48768;DHT22;34933;40.968;14.538;2023-07-09T03:13:32;23.90;99.90
48768;DHT22;34933;40.968;14.538;2023-07-09T03:16:17;23.80;99.90
48768;DHT22;34933;40.968;14.538;2023-07-09T03:19:03;23.80;99.90
48768;DHT22;34933;40.968;14.538;2023-07-09T03:21:49;23.80;99.90
48768;DHT22;34933;40.968;14.538;2023-07-09T03:24:33;23.70;99.90
48768;DHT22;34933;40.968;14.538;2023-07-09T03:27:18;23.70;99.90
48768;DHT22;34933;40.968;14.538;2023-07-09T03:30:03;23.80;99.90
48768;DHT22;34933;40.968;14.538;2023-07-09T03:32:47;23.70;99.90
48768;DHT22;34933;40.968;14.538;2023-07-09T03:35:32;23.70;99.90
48768;DHT22;34933;40.968;14.538;2023-07-09T03:38:19;23.70;99.90
48768;DHT22;34933;40.968;14.538;2023-07-09T03:41:04;23.70;99.90
48768;DHT22;34933;40.968;14.538;2023-07-09T03:43:49;23.70;99.90
48768;DHT22;34933;40.968;14.538;2023-07-09T03:46:34;23.60;99.90
48768;DHT22;34933;40.968;14.538;2023-07-09T03:49:19;23.60;99.90
48768;DHT22;34933;40.968;14.538;2023-07-09T03:52:04;23.60;99.90
48768;DHT22;34933;40.968;14.538;2023-07-09T03:54:48;23.60;99.90
48768;DHT22;34933;40.968;14.538;2023-07-09T03:57:34;23.70;99.90
48768;DHT22;34933;40.968;14.538;2023-07-09T04:00:19;23.70;99.90
48768;DHT22;34933;40.968;14.538;2023-07-09T04:03:05;23.60;99.90
48768;DHT22;34933;40.968;14.538;2023-07-09T04:05:52;23.60;99.90
48768;DHT22;34933;40.968;14.538;2023-07-09T04:08:37;23.70;99.90
48768;DHT22;34933;40.968;14.538;2023-07-09T04:11:21;23.70;99.90
48768;DHT22;34933;40.968;14.538;2023-07-09T04:14:06;23.70;99.90
48768;DHT22;34933;40.968;14.538;2023-07-09T04:16:51;23.70;99.90
48768;DHT22;34933;40.968;14.538;2023-07-09T04:19:35;23.80;99.90
48768;DHT22;34933;40.968;14.538;2023-07-09T04:22:20;23.90;99.90
48768;DHT22;34933;40.968;14.538;2023-07-09T04:25:07;24.10;99.90
48768;DHT22;34933;40.968;14.538;2023-07-09T04:27:54;24.20;99.90
48768;DHT22;34933;40.968;14.538;2023-07-09T04:30:38;24.30;99.90
48768;DHT22;34933;40.968;14.538;2023-07-09T04:33:23;24.30;99.90
48768;DHT22;34933;40.968;14.538;2023-07-09T04:36:07;24.40;99.90
48768;DHT22;34933;40.968;14.538;2023-07-09T04:38:53;24.40;99.90
48768;DHT22;34933;40.968;14.538;2023-07-09T04:41:37;24.60;99.90
48768;DHT22;34933;40.968;14.538;2023-07-09T04:44:22;24.70;99.90
48768;DHT22;34933;40.968;14.538;2023-07-09T04:47:07;24.70;99.90
48768;DHT22;34933;40.968;14.538;2023-07-09T04:49:51;24.80;99.90
48768;DHT22;34933;40.968;14.538;2023-07-09T04:52:36;24.90;99.90
48768;DHT22;34933;40.968;14.538;2023-07-09T04:55:21;25.00;99.90
48768;DHT22;34933;40.968;14.538;2023-07-09T04:58:06;25.10;99.90
48768;DHT22;34933;40.968;14.538;2023-07-09T05:00:50;25.20;99.90
48768;DHT22;34933;40.968;14.538;2023-07-09T05:03:35;25.30;99.90
48768;DHT22;34933;40.968;14.538;2023-07-09T05:06:19;25.40;99.90
48768;DHT22;34933;40.968;14.538;2023-07-09T05:09:05;25.40;99.90
48768;DHT22;34933;40.968;14.538;2023-07-09T05:11:49;25.40;99.90
48768;DHT22;34933;40.968;14.538;2023-07-09T05:14:35;25.50;99.90
48768;DHT22;34933;40.968;14.538;2023-07-09T05:17:19;25.60;99.90
48768;DHT22;34933;40.968;14.538;2023-07-09T05:20:04;25.70;99.90
48768;DHT22;34933;40.968;14.538;2023-07-09T05:22:50;25.80;99.90
48768;DHT22;34933;40.968;14.538;2023-07-09T05:25:34;25.90;99.90
48768;DHT22;34933;40.968;14.538;2023-07-09T05:28:19;26.00;99.90
48768;DHT22;34933;40.968;14.538;2023-07-09T05:31:06;26.20;99.90
48768;DHT22;34933;40.968;14.538;2023-07-09T05:33:51;26.20;99.90
48768;DHT22;34933;40.968;14.538;2023-07-09T05:36:36;26.30;99.90
48768;DHT22;34933;40.968;14.538;2023-07-09T05:39:20;26.40;99.90
48768;DHT22;34933;40.968;14.538;2023-07-09T05:42:05;26.60;99.90
48768;DHT22;34933;40.968;14.538;2023-07-09T05:44:51;26.70;99.90
48768;DHT22;34933;40.968;14.538;2023-07-09T05:47:36;26.90;99.90
48768;DHT22;34933;40.968;14.538;2023-07-09T05:50:20;26.90;99.90
48768;DHT22;34933;40.968;14.538;2023-07-09T05:53:05;27.00;99.90
48768;DHT22;34933;40.968;14.538;2023-07-09T05:55:54;27.10;99.90
48768;DHT22;34933;40.968;14.538;2023-07-09T05:58:39;27.30;99.90
48768;DHT22;34933;40.968;14.538;2023-07-09T06:01:24;27.40;99.90
48768;DHT22;34933;40.968;14.538;2023-07-09T06:04:08;27.50;99.90
48768;DHT22;34933;40.968;14.538;2023-07-09T06:06:53;27.70;99.90
48768;DHT22;34933;40.968;14.538;2023-07-09T06:09:37;27.90;99.90
48768;DHT22;34933;40.968;14.538;2023-07-09T06:12:22;28.00;99.90
48768;DHT22;34933;40.968;14.538;2023-07-09T06:15:07;27.90;99.90
48768;DHT22;34933;40.968;14.538;2023-07-09T06:17:53;28.00;99.90
48768;DHT22;34933;40.968;14.538;2023-07-09T06:20:38;28.10;99.90
48768;DHT22;34933;40.968;14.538;2023-07-09T06:23:22;28.10;99.90
48768;DHT22;34933;40.968;14.538;2023-07-09T06:26:07;28.10;99.90
48768;DHT22;34933;40.968;14.538;2023-07-09T06:28:51;28.20;99.90
48768;DHT22;34933;40.968;14.538;2023-07-09T06:31:36;28.30;99.90
48768;DHT22;34933;40.968;14.538;2023-07-09T06:34:21;28.40;99.90
48768;DHT22;34933;40.968;14.538;2023-07-09T06:37:06;28.40;99.90
48768;DHT22;34933;40.968;14.538;2023-07-09T06:39:51;28.50;99.90
48768;DHT22;34933;40.968;14.538;2023-07-09T06:42:36;28.70;99.90
48768;DHT22;34933;40.968;14.538;2023-07-09T06:46:00;28.90;99.90
48768;DHT22;34933;40.968;14.538;2023-07-09T06:48:46;29.20;99.90
48768;DHT22;34933;40.968;14.538;2023-07-09T06:51:30;29.50;99.90
48768;DHT22;34933;40.968;14.538;2023-07-09T06:54:16;29.70;99.50
48768;DHT22;34933;40.968;14.538;2023-07-09T06:57:01;29.90;99.50
48768;DHT22;34933;40.968;14.538;2023-07-09T06:59:45;30.00;99.90
48768;DHT22;34933;40.968;14.538;2023-07-09T07:02:31;30.10;99.90
48768;DHT22;34933;40.968;14.538;2023-07-09T07:05:16;30.20;98.50
48768;DHT22;34933;40.968;14.538;2023-07-09T07:08:03;30.40;99.50
48768;DHT22;34933;40.968;14.538;2023-07-09T07:10:49;30.50;99.70
48768;DHT22;34933;40.968;14.538;2023-07-09T07:13:38;30.70;99.70
48768;DHT22;34933;40.968;14.538;2023-07-09T07:16:23;30.80;99.90
48768;DHT22;34933;40.968;14.538;2023-07-09T07:19:07;30.90;99.90
48768;DHT22;34933;40.968;14.538;2023-07-09T07:21:54;31.00;99.90
48768;DHT22;34933;40.968;14.538;2023-07-09T07:24:38;31.00;99.10
48768;DHT22;34933;40.968;14.538;2023-07-09T07:27:23;31.10;98.10
48768;DHT22;34933;40.968;14.538;2023-07-09T07:30:08;31.20;98.30
48768;DHT22;34933;40.968;14.538;2023-07-09T07:32:55;31.30;96.60
48768;DHT22;34933;40.968;14.538;2023-07-09T07:35:40;31.30;96.40
48768;DHT22;34933;40.968;14.538;2023-07-09T07:38:24;31.30;96.90
48768;DHT22;34933;40.968;14.538;2023-07-09T07:41:09;31.40;94.10
48768;DHT22;34933;40.968;14.538;2023-07-09T07:43:53;31.50;93.60
48768;DHT22;34933;40.968;14.538;2023-07-09T07:46:38;31.70;95.00
48768;DHT22;34933;40.968;14.538;2023-07-09T07:49:23;31.70;93.60
48768;DHT22;34933;40.968;14.538;2023-07-09T07:52:07;31.80;92.80
48768;DHT22;34933;40.968;14.538;2023-07-09T07:54:52;31.90;90.10
48768;DHT22;34933;40.968;14.538;2023-07-09T07:57:37;32.00;90.20
48768;DHT22;34933;40.968;14.538;2023-07-09T08:00:21;32.00;87.60
48768;DHT22;34933;40.968;14.538;2023-07-09T08:03:06;32.20;89.40
48768;DHT22;34933;40.968;14.538;2023-07-09T08:05:51;32.30;89.40
48768;DHT22;34933;40.968;14.538;2023-07-09T08:08:36;32.40;88.30
48768;DHT22;34933;40.968;14.538;2023-07-09T08:11:20;32.40;89.10
48768;DHT22;34933;40.968;14.538;2023-07-09T08:14:05;32.60;90.00
48768;DHT22;34933;40.968;14.538;2023-07-09T08:16:50;32.60;91.80
48768;DHT22;34933;40.968;14.538;2023-07-09T08:19:49;32.70;89.50
48768;DHT22;34933;40.968;14.538;2023-07-09T08:22:34;32.80;81.60
48768;DHT22;34933;40.968;14.538;2023-07-09T08:25:19;32.90;83.80
48768;DHT22;34933;40.968;14.538;2023-07-09T08:28:03;33.00;82.30
48768;DHT22;34933;40.968;14.538;2023-07-09T08:30:48;33.10;81.80
48768;DHT22;34933;40.968;14.538;2023-07-09T08:33:35;33.20;88.00
48768;DHT22;34933;40.968;14.538;2023-07-09T08:36:20;33.20;85.80
48768;DHT22;34933;40.968;14.538;2023-07-09T08:39:05;33.40;87.40
48768;DHT22;34933;40.968;14.538;2023-07-09T08:42:04;33.60;82.20
48768;DHT22;34933;40.968;14.538;2023-07-09T08:50:50;33.80;90.20
48768;DHT22;34933;40.968;14.538;2023-07-09T08:53:44;33.80;87.10
48768;DHT22;34933;40.968;14.538;2023-07-09T08:56:32;33.90;82.70
48768;DHT22;34933;40.968;14.538;2023-07-09T08:59:18;34.00;83.40
48768;DHT22;34933;40.968;14.538;2023-07-09T09:02:05;34.00;84.40
48768;DHT22;34933;40.968;14.538;2023-07-09T09:04:58;34.10;86.70
48768;DHT22;34933;40.968;14.538;2023-07-09T09:07:44;34.20;83.10
48768;DHT22;34933;40.968;14.538;2023-07-09T09:10:33;34.30;82.60
48768;DHT22;34933;40.968;14.538;2023-07-09T09:13:25;34.30;79.10
48768;DHT22;34933;40.968;14.538;2023-07-09T09:16:21;34.30;80.20
48768;DHT22;34933;40.968;14.538;2023-07-09T09:19:18;34.30;79.60
48768;DHT22;34933;40.968;14.538;2023-07-09T09:22:08;34.30;78.50
48768;DHT22;34933;40.968;14.538;2023-07-09T09:27:42;34.30;80.10
48768;DHT22;34933;40.968;14.538;2023-07-09T09:30:27;34.50;79.10
48768;DHT22;34933;40.968;14.538;2023-07-09T09:33:12;34.50;78.70
48768;DHT22;34933;40.968;14.538;2023-07-09T09:36:02;34.50;78.10
48768;DHT22;34933;40.968;14.538;2023-07-09T09:38:47;34.70;79.20
48768;DHT22;34933;40.968;14.538;2023-07-09T09:41:36;34.80;81.20
48768;DHT22;34933;40.968;14.538;2023-07-09T09:44:27;35.00;79.20
48768;DHT22;34933;40.968;14.538;2023-07-09T09:47:12;35.10;77.90
48768;DHT22;34933;40.968;14.538;2023-07-09T09:49:57;35.10;78.70
48768;DHT22;34933;40.968;14.538;2023-07-09T09:52:43;35.30;79.60
48768;DHT22;34933;40.968;14.538;2023-07-09T09:55:30;35.30;77.50
48768;DHT22;34933;40.968;14.538;2023-07-09T09:58:17;35.40;76.60
48768;DHT22;34933;40.968;14.538;2023-07-09T10:01:02;35.50;76.30
48768;DHT22;34933;40.968;14.538;2023-07-09T10:03:51;35.50;77.80
48768;DHT22;34933;40.968;14.538;2023-07-09T10:06:46;35.40;76.40
48768;DHT22;34933;40.968;14.538;2023-07-09T10:09:47;35.60;78.10
48768;DHT22;34933;40.968;14.538;2023-07-09T10:12:50;35.90;79.20
48768;DHT22;34933;40.968;14.538;2023-07-09T10:16:02;36.00;76.40
48768;DHT22;34933;40.968;14.538;2023-07-09T10:19:03;36.10;77.10
48768;DHT22;34933;40.968;14.538;2023-07-09T10:21:59;36.20;77.20
48768;DHT22;34933;40.968;14.538;2023-07-09T10:27:53;36.10;74.70
48768;DHT22;34933;40.968;14.538;2023-07-09T10:39:34;36.70;75.10
48768;DHT22;34933;40.968;14.538;2023-07-09T10:42:34;36.80;74.60
48768;DHT22;34933;40.968;14.538;2023-07-09T10:45:28;36.80;73.90
48768;DHT22;34933;40.968;14.538;2023-07-09T10:48:16;36.90;74.30
48768;DHT22;34933;40.968;14.538;2023-07-09T10:51:02;36.90;73.80
48768;DHT22;34933;40.968;14.538;2023-07-09T10:57:11;37.20;76.10
48768;DHT22;34933;40.968;14.538;2023-07-09T10:59:58;37.30;74.00
48768;DHT22;34933;40.968;14.538;2023-07-09T11:02:43;37.30;74.30
48768;DHT22;34933;40.968;14.538;2023-07-09T11:05:28;37.50;75.70
48768;DHT22;34933;40.968;14.538;2023-07-09T11:08:35;37.80;75.00
48768;DHT22;34933;40.968;14.538;2023-07-09T11:11:40;38.20;76.00
48768;DHT22;34933;40.968;14.538;2023-07-09T11:17:17;38.80;75.20
48768;DHT22;34933;40.968;14.538;2023-07-09T11:20:23;38.90;73.80
48768;DHT22;34933;40.968;14.538;2023-07-09T11:23:20;38.80;73.00
48768;DHT22;34933;40.968;14.538;2023-07-09T11:26:15;38.70;73.30
48768;DHT22;34933;40.968;14.538;2023-07-09T11:31:53;38.70;72.70
48768;DHT22;34933;40.968;14.538;2023-07-09T11:34:45;38.70;73.20
48768;DHT22;34933;40.968;14.538;2023-07-09T11:37:30;38.40;73.60
48768;DHT22;34933;40.968;14.538;2023-07-09T11:40:15;38.70;75.60
48768;DHT22;34933;40.968;14.538;2023-07-09T11:43:03;39.00;74.70
48768;DHT22;34933;40.968;14.538;2023-07-09T11:45:48;38.80;74.30
48768;DHT22;34933;40.968;14.538;2023-07-09T11:48:33;38.90;75.30
48768;DHT22;34933;40.968;14.538;2023-07-09T11:51:25;39.30;75.80
48768;DHT22;34933;40.968;14.538;2023-07-09T11:54:14;40.30;74.90
48768;DHT22;34933;40.968;14.538;2023-07-09T11:56:59;41.20;74.40
48768;DHT22;34933;40.968;14.538;2023-07-09T11:59:46;41.80;73.10
48768;DHT22;34933;40.968;14.538;2023-07-09T12:02:32;42.30;72.80
48768;DHT22;34933;40.968;14.538;2023-07-09T12:05:25;42.60;73.10
48768;DHT22;34933;40.968;14.538;2023-07-09T12:08:14;43.50;71.50
48768;DHT22;34933;40.968;14.538;2023-07-09T12:10:59;43.50;71.80
48768;DHT22;34933;40.968;14.538;2023-07-09T12:13:44;43.80;71.60
48768;DHT22;34933;40.968;14.538;2023-07-09T12:16:31;44.10;70.70
48768;DHT22;34933;40.968;14.538;2023-07-09T12:19:19;44.00;70.00
48768;DHT22;34933;40.968;14.538;2023-07-09T12:22:09;44.30;70.40
48768;DHT22;34933;40.968;14.538;2023-07-09T12:24:54;44.50;71.30
48768;DHT22;34933;40.968;14.538;2023-07-09T12:27:42;45.20;69.90
48768;DHT22;34933;40.968;14.538;2023-07-09T12:30:31;45.40;69.30
48768;DHT22;34933;40.968;14.538;2023-07-09T12:33:22;45.30;67.90
48768;DHT22;34933;40.968;14.538;2023-07-09T12:36:07;46.00;68.60
48768;DHT22;34933;40.968;14.538;2023-07-09T12:38:55;46.30;67.30
48768;DHT22;34933;40.968;14.538;2023-07-09T12:41:44;46.00;67.70
48768;DHT22;34933;40.968;14.538;2023-07-09T12:44:33;46.20;68.80
48768;DHT22;34933;40.968;14.538;2023-07-09T12:47:19;46.90;66.90
48768;DHT22;34933;40.968;14.538;2023-07-09T12:50:27;47.40;67.50
48768;DHT22;34933;40.968;14.538;2023-07-09T12:53:16;47.20;66.80
48768;DHT22;34933;40.968;14.538;2023-07-09T12:56:01;46.90;66.70
48768;DHT22;34933;40.968;14.538;2023-07-09T12:58:46;46.70;66.00
48768;DHT22;34933;40.968;14.538;2023-07-09T13:01:34;46.30;66.30
48768;DHT22;34933;40.968;14.538;2023-07-09T13:04:19;46.20;65.80
48768;DHT22;34933;40.968;14.538;2023-07-09T13:07:04;46.50;65.10
48768;DHT22;34933;40.968;14.538;2023-07-09T13:09:51;46.30;65.70
48768;DHT22;34933;40.968;14.538;2023-07-09T13:12:39;46.60;65.60
48768;DHT22;34933;40.968;14.538;2023-07-09T13:18:14;46.80;65.70
48768;DHT22;34933;40.968;14.538;2023-07-09T13:21:00;47.40;66.50
48768;DHT22;34933;40.968;14.538;2023-07-09T13:23:48;47.70;65.20
48768;DHT22;34933;40.968;14.538;2023-07-09T13:26:32;47.70;64.40
48768;DHT22;34933;40.968;14.538;2023-07-09T13:29:18;47.90;64.30
48768;DHT22;34933;40.968;14.538;2023-07-09T13:32:11;48.20;64.40
48768;DHT22;34933;40.968;14.538;2023-07-09T13:34:55;48.50;63.10
48768;DHT22;34933;40.968;14.538;2023-07-09T13:37:40;48.40;63.00
48768;DHT22;34933;40.968;14.538;2023-07-09T13:40:25;47.90;63.50
48768;DHT22;34933;40.968;14.538;2023-07-09T13:43:22;47.30;63.20
48768;DHT22;34933;40.968;14.538;2023-07-09T13:46:08;47.10;64.30
48768;DHT22;34933;40.968;14.538;2023-07-09T13:48:53;47.30;64.00
48768;DHT22;34933;40.968;14.538;2023-07-09T13:51:38;47.50;64.00
48768;DHT22;34933;40.968;14.538;2023-07-09T13:54:33;47.80;64.00
48768;DHT22;34933;40.968;14.538;2023-07-09T13:57:21;47.70;63.10
48768;DHT22;34933;40.968;14.538;2023-07-09T14:00:09;48.30;63.40
48768;DHT22;34933;40.968;14.538;2023-07-09T14:02:53;48.40;62.50
48768;DHT22;34933;40.968;14.538;2023-07-09T14:05:38;48.30;63.10
48768;DHT22;34933;40.968;14.538;2023-07-09T14:08:23;48.20;62.80
48768;DHT22;34933;40.968;14.538;2023-07-09T14:11:12;48.10;63.50
48768;DHT22;34933;40.968;14.538;2023-07-09T14:13:57;48.20;62.90
48768;DHT22;34933;40.968;14.538;2023-07-09T14:16:42;49.20;63.10
48768;DHT22;34933;40.968;14.538;2023-07-09T14:19:26;49.50;62.00
48768;DHT22;34933;40.968;14.538;2023-07-09T14:25:24;50.10;61.90
48768;DHT22;34933;40.968;14.538;2023-07-09T14:28:18;50.50;61.70
48768;DHT22;34933;40.968;14.538;2023-07-09T14:31:03;50.70;61.20
48768;DHT22;34933;40.968;14.538;2023-07-09T14:33:48;50.30;60.80
48768;DHT22;34933;40.968;14.538;2023-07-09T14:36:32;50.70;58.90
48768;DHT22;34933;40.968;14.538;2023-07-09T14:39:18;51.30;59.50
48768;DHT22;34933;40.968;14.538;2023-07-09T14:42:03;50.80;60.00
48768;DHT22;34933;40.968;14.538;2023-07-09T14:44:48;50.30;60.90
48768;DHT22;34933;40.968;14.538;2023-07-09T14:47:34;50.00;60.40
48768;DHT22;34933;40.968;14.538;2023-07-09T14:50:22;49.60;60.70
48768;DHT22;34933;40.968;14.538;2023-07-09T14:53:21;49.20;60.20
48768;DHT22;34933;40.968;14.538;2023-07-09T14:56:07;48.60;61.40
48768;DHT22;34933;40.968;14.538;2023-07-09T14:58:53;49.10;61.20
48768;DHT22;34933;40.968;14.538;2023-07-09T15:01:38;48.90;60.90
48768;DHT22;34933;40.968;14.538;2023-07-09T15:04:32;49.50;60.50
48768;DHT22;34933;40.968;14.538;2023-07-09T15:07:17;49.90;60.10
48768;DHT22;34933;40.968;14.538;2023-07-09T15:10:02;50.10;60.30
48768;DHT22;34933;40.968;14.538;2023-07-09T15:12:51;49.90;60.40
48768;DHT22;34933;40.968;14.538;2023-07-09T15:15:36;49.80;60.40
48768;DHT22;34933;40.968;14.538;2023-07-09T15:18:20;49.70;60.40
48768;DHT22;34933;40.968;14.538;2023-07-09T15:21:05;49.60;60.10
48768;DHT22;34933;40.968;14.538;2023-07-09T15:23:50;49.20;60.60
48768;DHT22;34933;40.968;14.538;2023-07-09T15:26:34;49.10;60.60
48768;DHT22;34933;40.968;14.538;2023-07-09T15:29:20;49.30;60.70
48768;DHT22;34933;40.968;14.538;2023-07-09T15:32:05;49.80;60.30
48768;DHT22;34933;40.968;14.538;2023-07-09T15:34:49;49.60;60.00
48768;DHT22;34933;40.968;14.538;2023-07-09T15:37:34;49.40;60.10
48768;DHT22;34933;40.968;14.538;2023-07-09T15:40:22;49.90;60.20
48768;DHT22;34933;40.968;14.538;2023-07-09T15:43:07;50.00;59.80
48768;DHT22;34933;40.968;14.538;2023-07-09T15:45:55;49.40;59.70
48768;DHT22;34933;40.968;14.538;2023-07-09T15:48:40;49.60;59.90
48768;DHT22;34933;40.968;14.538;2023-07-09T15:51:28;49.60;59.50
48768;DHT22;34933;40.968;14.538;2023-07-09T15:54:20;49.60;59.80
48768;DHT22;34933;40.968;14.538;2023-07-09T15:57:04;49.70;59.50
48768;DHT22;34933;40.968;14.538;2023-07-09T15:59:49;49.60;59.50
48768;DHT22;34933;40.968;14.538;2023-07-09T16:02:34;49.10;60.30
48768;DHT22;34933;40.968;14.538;2023-07-09T16:05:22;49.10;59.70
48768;DHT22;34933;40.968;14.538;2023-07-09T16:08:07;48.90;60.00
48768;DHT22;34933;40.968;14.538;2023-07-09T16:10:54;48.30;59.60
48768;DHT22;34933;40.968;14.538;2023-07-09T16:13:40;48.70;60.20
48768;DHT22;34933;40.968;14.538;2023-07-09T16:16:24;49.10;59.60
48768;DHT22;34933;40.968;14.538;2023-07-09T16:19:10;49.60;58.10
48768;DHT22;34933;40.968;14.538;2023-07-09T16:21:59;49.10;58.30
48768;DHT22;34933;40.968;14.538;2023-07-09T16:24:44;48.70;59.60
48768;DHT22;34933;40.968;14.538;2023-07-09T16:27:29;48.20;59.30
48768;DHT22;34933;40.968;14.538;2023-07-09T16:30:17;48.40;59.30
48768;DHT22;34933;40.968;14.538;2023-07-09T16:33:02;48.70;59.20
48768;DHT22;34933;40.968;14.538;2023-07-09T16:35:48;47.90;59.50
48768;DHT22;34933;40.968;14.538;2023-07-09T16:38:34;48.10;59.50
48768;DHT22;34933;40.968;14.538;2023-07-09T16:41:19;47.80;59.30
48768;DHT22;34933;40.968;14.538;2023-07-09T16:44:10;48.00;59.30
48768;DHT22;34933;40.968;14.538;2023-07-09T16:46:55;48.00;59.50
48768;DHT22;34933;40.968;14.538;2023-07-09T16:49:40;47.50;59.50
48768;DHT22;34933;40.968;14.538;2023-07-09T16:52:27;47.70;59.50
48768;DHT22;34933;40.968;14.538;2023-07-09T16:55:24;47.20;59.80
48768;DHT22;34933;40.968;14.538;2023-07-09T16:58:34;47.30;60.00
48768;DHT22;34933;40.968;14.538;2023-07-09T17:01:20;47.00;59.60
48768;DHT22;34933;40.968;14.538;2023-07-09T17:04:25;46.10;60.80
48768;DHT22;34933;40.968;14.538;2023-07-09T17:07:11;45.60;60.60
48768;DHT22;34933;40.968;14.538;2023-07-09T17:09:56;45.20;61.20
48768;DHT22;34933;40.968;14.538;2023-07-09T17:12:43;44.90;61.00
48768;DHT22;34933;40.968;14.538;2023-07-09T17:15:30;44.50;61.70
48768;DHT22;34933;40.968;14.538;2023-07-09T17:18:26;44.40;61.50
48768;DHT22;34933;40.968;14.538;2023-07-09T17:21:12;44.50;62.00
48768;DHT22;34933;40.968;14.538;2023-07-09T17:23:56;44.60;61.70
48768;DHT22;34933;40.968;14.538;2023-07-09T17:26:41;44.10;62.30
48768;DHT22;34933;40.968;14.538;2023-07-09T17:29:26;43.90;63.10
48768;DHT22;34933;40.968;14.538;2023-07-09T17:32:10;43.70;64.60
48768;DHT22;34933;40.968;14.538;2023-07-09T17:34:59;42.50;65.50
48768;DHT22;34933;40.968;14.538;2023-07-09T17:37:49;40.90;67.20
48768;DHT22;34933;40.968;14.538;2023-07-09T17:40:35;39.40;68.60
48768;DHT22;34933;40.968;14.538;2023-07-09T17:43:23;38.10;70.80
48768;DHT22;34933;40.968;14.538;2023-07-09T17:46:10;36.90;73.90
48768;DHT22;34933;40.968;14.538;2023-07-09T17:48:55;35.90;76.40
48768;DHT22;34933;40.968;14.538;2023-07-09T17:51:40;35.20;76.90
48768;DHT22;34933;40.968;14.538;2023-07-09T17:54:26;34.70;77.90
48768;DHT22;34933;40.968;14.538;2023-07-09T17:57:24;34.30;78.60